createdAt,value
2022-09-07T00:02:23.893Z,100.00
2022-09-07T00:04:51.964Z,100.00
2022-09-07T00:07:20.259Z,100.00
2022-09-07T00:09:48.482Z,100.00
2022-09-07T00:12:16.557Z,100.00
2022-09-07T00:14:44.647Z,100.00
2022-09-07T00:17:12.728Z,100.00
2022-09-07T00:19:42.363Z,100.00
2022-09-07T00:22:10.478Z,100.00
2022-09-07T00:24:38.757Z,100.00
2022-09-07T00:27:06.940Z,100.00
2022-09-07T00:29:35.005Z,100.00
2022-09-07T00:32:03.455Z,100.00
2022-09-07T00:34:31.517Z,100.00
2022-09-07T00:37:01.046Z,100.00
2022-09-07T00:39:29.243Z,100.00
2022-09-07T00:41:57.333Z,100.00
2022-09-07T00:45:04.074Z,100.00
2022-09-07T00:47:37.947Z,100.00
2022-09-07T00:50:11.145Z,100.00
2022-09-07T00:52:43.308Z,100.00
2022-09-07T00:55:15.268Z,100.00
2022-09-07T00:57:47.951Z,100.00
2022-09-07T01:00:16.612Z,100.00
2022-09-07T01:02:45.107Z,100.00
2022-09-07T01:05:20.694Z,100.00
2022-09-07T01:07:50.349Z,100.00
2022-09-07T01:10:18.800Z,100.00
2022-09-07T01:12:46.880Z,100.00
2022-09-07T01:15:14.992Z,100.00
2022-09-07T01:17:56.866Z,100.00
2022-09-07T01:20:50.592Z,100.00
2022-09-07T01:23:59.972Z,100.00
2022-09-07T01:27:05.110Z,100.00
2022-09-07T01:29:39.491Z,100.00
2022-09-07T01:32:15.621Z,100.00
2022-09-07T01:34:47.478Z,100.00
2022-09-07T01:37:24.577Z,100.00
2022-09-07T01:39:57.087Z,100.00
2022-09-07T01:42:31.832Z,100.00
2022-09-07T01:45:03.278Z,100.00
2022-09-07T01:47:35.536Z,100.00
2022-09-07T01:50:09.578Z,100.00
2022-09-07T01:52:43.038Z,100.00
2022-09-07T01:55:16.680Z,100.00
2022-09-07T01:57:51.159Z,100.00
2022-09-07T02:00:21.088Z,100.00
2022-09-07T02:02:56.501Z,100.00
2022-09-07T02:05:29.142Z,100.00
2022-09-07T02:08:00.184Z,100.00
2022-09-07T02:10:35.184Z,100.00
2022-09-07T02:13:09.368Z,100.00
2022-09-07T02:15:46.099Z,100.00
2022-09-07T02:18:15.427Z,100.00
2022-09-07T02:20:48.157Z,100.00
2022-09-07T02:23:21.180Z,100.00
2022-09-07T02:25:55.151Z,100.00
2022-09-07T02:28:28.056Z,100.00
2022-09-07T02:30:57.697Z,100.00
2022-09-07T02:33:25.900Z,100.00
2022-09-07T02:35:54.278Z,100.00
2022-09-07T02:38:22.832Z,100.00
2022-09-07T02:40:53.156Z,100.00
2022-09-07T02:43:23.053Z,100.00
2022-09-07T02:46:19.653Z,100.00
2022-09-07T02:48:55.740Z,100.00
2022-09-07T02:51:32.751Z,100.00
2022-09-07T02:54:16.704Z,100.00
2022-09-07T02:56:59.129Z,100.00
2022-09-07T02:59:40.982Z,100.00
2022-09-07T03:02:18.397Z,100.00
2022-09-07T03:04:52.304Z,100.00
2022-09-07T03:07:24.015Z,100.00
2022-09-07T03:09:55.293Z,100.00
2022-09-07T03:12:23.695Z,100.00
2022-09-07T03:14:51.741Z,100.00
2022-09-07T03:17:21.197Z,100.00
2022-09-07T03:19:49.265Z,100.00
2022-09-07T03:22:17.358Z,100.00
2022-09-07T03:24:45.999Z,100.00
2022-09-07T03:27:14.081Z,100.00
2022-09-07T03:29:42.281Z,100.00
2022-09-07T03:32:10.365Z,100.00
2022-09-07T03:34:39.910Z,100.00
2022-09-07T03:37:07.993Z,100.00
2022-09-07T03:39:36.684Z,100.00
2022-09-07T03:42:05.113Z,100.00
2022-09-07T03:44:33.628Z,100.00
2022-09-07T03:47:01.712Z,100.00
2022-09-07T03:49:29.800Z,100.00
2022-09-07T03:51:59.196Z,100.00
2022-09-07T03:54:27.364Z,100.00
2022-09-07T03:56:55.461Z,100.00
2022-09-07T03:59:23.681Z,100.00
2022-09-07T04:01:51.839Z,100.00
2022-09-07T04:04:20.012Z,100.00
2022-09-07T04:06:48.161Z,100.00
2022-09-07T04:09:17.731Z,100.00
2022-09-07T04:11:45.826Z,100.00
2022-09-07T04:14:13.987Z,100.00
2022-09-07T04:16:42.178Z,100.00
2022-09-07T04:19:10.282Z,100.00
2022-09-07T04:21:38.376Z,100.00
2022-09-07T04:24:06.807Z,100.00
2022-09-07T04:26:37.068Z,100.00
2022-09-07T04:29:06.921Z,100.00
2022-09-07T04:31:35.728Z,100.00
2022-09-07T04:34:05.084Z,100.00
2022-09-07T04:36:33.340Z,100.00
2022-09-07T04:39:04.067Z,100.00
2022-09-07T04:41:34.221Z,100.00
2022-09-07T04:44:05.329Z,100.00
2022-09-07T04:46:35.152Z,100.00
2022-09-07T04:49:06.072Z,100.00
2022-09-07T04:51:35.089Z,100.00
2022-09-07T04:54:04.204Z,100.00
2022-09-07T04:56:32.701Z,100.00
2022-09-07T04:59:03.275Z,100.00
2022-09-07T05:01:31.463Z,100.00
2022-09-07T05:04:00.581Z,100.00
2022-09-07T05:06:28.803Z,100.00
2022-09-07T05:08:57.298Z,100.00
2022-09-07T05:11:29.539Z,100.00
2022-09-07T05:13:58.201Z,100.00
2022-09-07T05:16:28.827Z,100.00
2022-09-07T05:18:59.478Z,100.00
2022-09-07T05:21:29.812Z,100.00
2022-09-07T05:23:59.478Z,100.00
2022-09-07T05:26:30.236Z,100.00
2022-09-07T05:31:51.878Z,100.00
2022-09-07T05:34:35.499Z,100.00
2022-09-07T05:37:03.926Z,100.00
2022-09-07T05:39:32.361Z,100.00
2022-09-07T05:42:00.489Z,100.00
2022-09-07T05:44:44.985Z,100.00
2022-09-07T05:47:15.149Z,100.00
2022-09-07T05:49:43.230Z,100.00
2022-09-07T05:52:12.248Z,100.00
2022-09-07T05:54:40.399Z,100.00
2022-09-07T05:57:09.045Z,100.00
2022-09-07T05:59:37.127Z,100.00
2022-09-07T06:02:06.146Z,100.00
2022-09-07T06:04:35.733Z,100.00
2022-09-07T06:07:21.732Z,100.00
2022-09-07T06:12:39.197Z,100.00
2022-09-07T06:15:08.529Z,100.00
2022-09-07T06:17:36.633Z,100.00
2022-09-07T06:20:07.649Z,100.00
2022-09-07T06:22:36.508Z,100.00
2022-09-07T06:25:04.943Z,100.00
2022-09-07T06:27:33.076Z,100.00
2022-09-07T06:30:01.293Z,100.00
2022-09-07T06:32:45.758Z,100.00
2022-09-07T06:35:16.150Z,100.00
2022-09-07T06:37:44.296Z,100.00
2022-09-07T06:40:13.708Z,100.00
2022-09-07T06:42:41.849Z,100.00
2022-09-07T06:45:11.316Z,100.00
2022-09-07T06:47:40.129Z,100.00
2022-09-07T06:50:09.450Z,100.00
2022-09-07T06:55:28.637Z,100.00
2022-09-07T06:57:57.019Z,100.00
2022-09-07T07:00:25.302Z,100.00
2022-09-07T07:02:53.516Z,100.00
2022-09-07T07:05:21.822Z,100.00
2022-09-07T07:07:51.252Z,100.00
2022-09-07T07:10:24.284Z,100.00
2022-09-07T07:12:57.101Z,100.00
2022-09-07T07:15:27.403Z,100.00
2022-09-07T07:17:59.058Z,100.00
2022-09-07T07:20:33.741Z,100.00
2022-09-07T07:23:03.177Z,100.00
2022-09-07T07:25:31.616Z,100.00
2022-09-07T07:30:47.736Z,100.00
2022-09-07T07:33:15.837Z,100.00
2022-09-07T07:35:43.898Z,100.00
2022-09-07T07:43:49.612Z,100.00
2022-09-07T07:46:18.269Z,100.00
2022-09-07T07:48:49.097Z,100.00
2022-09-07T07:51:17.319Z,100.00
2022-09-07T07:53:46.916Z,100.00
2022-09-07T07:56:15.326Z,100.00
2022-09-07T07:58:46.635Z,100.00
2022-09-07T08:01:16.616Z,100.00
2022-09-07T08:03:46.843Z,100.00
2022-09-07T08:06:16.721Z,100.00
2022-09-07T08:08:46.518Z,100.00
2022-09-07T08:11:16.989Z,100.00
2022-09-07T08:13:46.518Z,100.00
2022-09-07T08:16:15.235Z,100.00
2022-09-07T08:18:46.957Z,100.00
2022-09-07T08:21:16.810Z,100.00
2022-09-07T08:23:46.165Z,100.00
2022-09-07T08:26:14.117Z,100.00
2022-09-07T08:28:43.893Z,100.00
2022-09-07T08:31:15.092Z,100.00
2022-09-07T08:33:43.854Z,100.00
2022-09-07T08:36:13.695Z,100.00
2022-09-07T08:38:42.662Z,100.00
2022-09-07T08:41:47.265Z,100.00
2022-09-07T08:44:22.997Z,100.00
2022-09-07T08:46:56.711Z,100.00
2022-09-07T08:49:33.915Z,100.00
2022-09-07T08:52:05.177Z,100.00
2022-09-07T08:54:34.137Z,100.00
2022-09-07T09:00:00.541Z,100.00
2022-09-07T09:02:31.916Z,100.00
2022-09-07T09:05:18.190Z,100.00
2022-09-07T09:07:56.241Z,100.00
2022-09-07T09:10:33.984Z,100.00
2022-09-07T09:13:13.191Z,100.00
2022-09-07T09:15:53.207Z,100.00
2022-09-07T09:18:41.561Z,100.00
2022-09-07T09:21:15.020Z,100.00
2022-09-07T09:23:45.647Z,100.00
2022-09-07T09:26:18.647Z,100.00
2022-09-07T09:28:48.037Z,100.00
2022-09-07T09:31:19.326Z,100.00
2022-09-07T09:34:09.398Z,100.00
2022-09-07T09:36:43.375Z,100.00
2022-09-07T09:39:31.511Z,100.00
2022-09-07T09:42:14.121Z,100.00
2022-09-07T09:44:45.414Z,100.00
2022-09-07T09:47:30.721Z,100.00
2022-09-07T09:50:00.893Z,100.00
2022-09-07T09:52:38.473Z,100.00
2022-09-07T09:55:34.570Z,100.00
2022-09-07T10:06:22.996Z,100.00
2022-09-07T10:08:57.337Z,100.00
2022-09-07T10:14:32.330Z,100.00
2022-09-07T10:17:11.237Z,100.00
2022-09-07T10:19:41.501Z,100.00
2022-09-07T10:22:24.706Z,100.00
2022-09-07T10:24:53.032Z,100.00
2022-09-07T10:27:29.772Z,100.00
2022-09-07T10:29:58.001Z,100.00
2022-09-07T10:32:36.295Z,100.00
2022-09-07T10:35:15.257Z,100.00
2022-09-07T10:37:52.168Z,100.00
2022-09-07T10:40:29.509Z,100.00
2022-09-07T10:43:22.786Z,100.00
2022-09-07T10:46:56.417Z,100.00
2022-09-07T10:49:17.377Z,100.00
2022-09-07T10:51:59.649Z,100.00
2022-09-07T10:54:37.248Z,100.00
2022-09-07T10:57:24.161Z,100.00
2022-09-07T11:00:09.647Z,100.00
2022-09-07T11:06:00.226Z,100.00
2022-09-07T11:09:15.716Z,100.00
2022-09-07T11:14:21.173Z,100.00
2022-09-07T11:16:54.092Z,100.00
2022-09-07T11:19:36.522Z,100.00
2022-09-07T11:22:20.050Z,100.00
2022-09-07T11:27:46.507Z,100.00
2022-09-07T11:30:20.773Z,100.00
2022-09-07T11:33:03.251Z,100.00
2022-09-07T11:35:45.879Z,100.00
2022-09-07T11:38:26.589Z,100.00
2022-09-07T11:41:09.253Z,100.00
2022-09-07T11:43:41.873Z,100.00
2022-09-07T11:46:15.245Z,100.00
2022-09-07T11:48:46.868Z,100.00
2022-09-07T11:51:21.490Z,100.00
2022-09-07T11:53:54.525Z,100.00
2022-09-07T11:56:29.291Z,100.00
2022-09-07T11:59:20.460Z,100.00
2022-09-07T12:02:02.450Z,100.00
2022-09-07T12:04:39.934Z,100.00
2022-09-07T12:07:50.065Z,100.00
2022-09-07T12:10:36.399Z,100.00
2022-09-07T12:13:42.973Z,100.00
2022-09-07T12:16:18.602Z,100.00
2022-09-07T12:19:18.418Z,100.00
2022-09-07T12:21:50.340Z,100.00
2022-09-07T12:24:44.091Z,100.00
2022-09-07T12:27:40.459Z,100.00
2022-09-07T12:30:51.876Z,100.00
2022-09-07T12:33:25.096Z,100.00
2022-09-07T12:35:55.012Z,100.00
2022-09-07T12:39:01.670Z,100.00
2022-09-07T12:41:47.899Z,100.00
2022-09-07T12:44:20.255Z,83.62
2022-09-07T12:46:51.910Z,74.93
2022-09-07T12:49:48.390Z,69.33
2022-09-07T12:52:39.417Z,62.01
2022-09-07T12:56:15.502Z,57.14
2022-09-07T12:58:22.040Z,52.60
2022-09-07T13:01:05.633Z,53.79
2022-09-07T13:03:51.394Z,59.36
2022-09-07T13:09:32.840Z,49.60
2022-09-07T13:12:04.640Z,45.32
2022-09-07T13:14:37.918Z,43.70
2022-09-07T13:17:41.636Z,41.49
2022-09-07T13:20:30.077Z,39.28
2022-09-07T13:23:09.732Z,43.87
2022-09-07T13:25:46.573Z,40.60
2022-09-07T13:28:25.860Z,39.12
2022-09-07T13:31:05.640Z,42.08
2022-09-07T13:33:51.574Z,41.20
2022-09-07T13:36:27.614Z,41.51
2022-09-07T13:38:56.169Z,42.28
2022-09-07T13:41:28.169Z,38.60
2022-09-07T13:44:00.708Z,37.16
2022-09-07T13:46:47.685Z,35.78
2022-09-07T13:49:36.055Z,33.27
2022-09-07T13:52:08.854Z,34.55
2022-09-07T13:54:51.320Z,35.45
2022-09-07T13:57:27.439Z,34.57
2022-09-07T13:59:56.786Z,34.16
2022-09-07T14:02:27.641Z,34.43
2022-09-07T14:04:58.794Z,34.46
2022-09-07T14:07:28.261Z,32.00
2022-09-07T14:10:14.325Z,31.76
2022-09-07T14:12:44.396Z,34.38
2022-09-07T14:15:20.162Z,34.69
2022-09-07T14:17:49.657Z,31.06
2022-09-07T14:20:19.556Z,31.75
2022-09-07T14:22:52.009Z,32.13
2022-09-07T14:25:22.764Z,32.79
2022-09-07T14:27:51.263Z,33.32
2022-09-07T14:30:25.918Z,30.71
2022-09-07T14:32:55.834Z,30.58
2022-09-07T14:35:28.296Z,30.44
2022-09-07T14:37:59.308Z,32.27
2022-09-07T14:40:27.502Z,33.49
2022-09-07T14:42:56.244Z,34.25
2022-09-07T14:45:34.975Z,38.53
2022-09-07T14:48:13.414Z,40.77
2022-09-07T14:51:00.889Z,42.08
2022-09-07T14:53:37.453Z,45.21
2022-09-07T14:56:11.376Z,47.23
2022-09-07T14:58:39.389Z,50.32
2022-09-07T15:04:18.389Z,53.66
2022-09-07T15:07:03.646Z,54.08
2022-09-07T15:09:37.369Z,58.09
2022-09-07T15:12:27.321Z,59.33
2022-09-07T15:15:11.929Z,60.53
2022-09-07T15:17:43.551Z,59.73
2022-09-07T15:20:40.300Z,61.70
2022-09-07T15:23:13.424Z,65.79
2022-09-07T15:25:46.568Z,71.95
2022-09-07T15:34:00.930Z,74.67
2022-09-07T15:36:31.881Z,75.64
2022-09-07T15:39:02.992Z,76.05
2022-09-07T15:41:31.615Z,79.52
2022-09-07T15:44:00.182Z,76.79
2022-09-07T15:46:28.362Z,78.64
2022-09-07T15:48:57.071Z,79.48
2022-09-07T15:54:16.320Z,82.23
2022-09-07T15:57:48.293Z,81.12
2022-09-07T15:59:32.956Z,82.01
2022-09-07T16:02:01.632Z,83.12
2022-09-07T16:04:30.419Z,85.20
2022-09-07T16:07:01.624Z,91.79
2022-09-07T16:09:31.141Z,90.14
2022-09-07T16:13:00.226Z,94.24
2022-09-07T16:14:47.041Z,97.57
2022-09-07T16:20:04.543Z,98.58
2022-09-07T16:25:22.212Z,100.00
2022-09-07T16:27:50.230Z,100.00
2022-09-07T16:30:18.306Z,100.00
2022-09-07T16:32:46.353Z,100.00
2022-09-07T16:35:14.596Z,100.00
2022-09-07T16:38:43.571Z,100.00
2022-09-07T16:40:31.912Z,100.00
2022-09-07T16:42:59.847Z,100.00
2022-09-07T16:48:15.714Z,100.00
2022-09-07T16:51:00.298Z,100.00
2022-09-07T16:53:30.184Z,100.00
2022-09-07T16:56:03.117Z,100.00
2022-09-07T16:58:35.934Z,100.00
2022-09-07T17:01:04.995Z,100.00
2022-09-07T17:03:33.302Z,100.00
2022-09-07T17:06:01.655Z,100.00
2022-09-07T17:08:29.947Z,100.00
2022-09-07T17:11:00.355Z,100.00
2022-09-07T17:13:31.368Z,100.00
2022-09-07T17:16:03.298Z,100.00
2022-09-07T17:21:20.842Z,100.00
2022-09-07T17:23:54.903Z,100.00
2022-09-07T17:26:26.598Z,100.00
2022-09-07T17:29:00.311Z,100.00
2022-09-07T17:34:19.455Z,100.00
2022-09-07T17:36:47.733Z,100.00
2022-09-07T17:39:18.963Z,100.00
2022-09-07T17:41:48.287Z,100.00
2022-09-07T17:44:17.609Z,100.00
2022-09-07T17:46:45.571Z,100.00
2022-09-07T17:49:16.163Z,100.00
2022-09-07T17:51:44.226Z,100.00
2022-09-07T17:54:14.178Z,100.00
2022-09-07T17:56:43.095Z,100.00
2022-09-07T18:02:01.854Z,100.00
2022-09-07T18:04:30.210Z,100.00
2022-09-07T18:06:58.259Z,100.00
2022-09-07T18:09:26.290Z,100.00
2022-09-07T18:11:54.244Z,100.00
2022-09-07T18:14:22.208Z,100.00
2022-09-07T18:16:51.356Z,100.00
2022-09-07T18:19:20.764Z,100.00
2022-09-07T18:21:49.628Z,100.00
2022-09-07T18:24:20.004Z,100.00
2022-09-07T18:26:50.143Z,100.00
2022-09-07T18:29:31.081Z,100.00
2022-09-07T18:32:03.051Z,100.00
2022-09-07T18:34:32.522Z,100.00
2022-09-07T18:37:00.788Z,100.00
2022-09-07T18:39:29.603Z,100.00
2022-09-07T18:41:57.724Z,100.00
2022-09-07T18:47:21.725Z,100.00
2022-09-07T18:49:52.761Z,100.00
2022-09-07T18:55:10.557Z,100.00
2022-09-07T18:57:38.882Z,100.00
2022-09-07T19:00:09.371Z,100.00
2022-09-07T19:02:37.605Z,100.00
2022-09-07T19:07:55.659Z,100.00
2022-09-07T19:10:23.616Z,100.00
2022-09-07T19:12:51.771Z,100.00
2022-09-07T19:15:21.168Z,100.00
2022-09-07T19:17:49.158Z,100.00
2022-09-07T19:20:18.649Z,100.00
2022-09-07T19:22:47.580Z,100.00
2022-09-07T19:25:15.678Z,100.00
2022-09-07T19:27:43.665Z,100.00
2022-09-07T19:30:12.509Z,100.00
2022-09-07T19:32:40.525Z,100.00
2022-09-07T19:35:09.131Z,100.00
2022-09-07T19:37:38.470Z,100.00
2022-09-07T19:40:08.231Z,100.00
2022-09-07T19:42:36.201Z,100.00
2022-09-07T19:45:04.596Z,100.00
2022-09-07T19:47:32.548Z,100.00
2022-09-07T19:50:00.541Z,100.00
2022-09-07T19:52:29.131Z,100.00
2022-09-07T19:55:00.321Z,100.00
2022-09-07T19:57:28.482Z,100.00
2022-09-07T19:59:57.914Z,100.00
2022-09-07T20:02:26.041Z,100.00
2022-09-07T20:04:54.040Z,100.00
2022-09-07T20:07:23.801Z,100.00
2022-09-07T20:09:52.380Z,100.00
2022-09-07T20:12:21.735Z,100.00
2022-09-07T20:14:49.696Z,100.00
2022-09-07T20:17:17.681Z,100.00
2022-09-07T20:19:45.654Z,100.00
2022-09-07T20:22:13.628Z,100.00
2022-09-07T20:24:41.762Z,100.00
2022-09-07T20:27:09.721Z,100.00
2022-09-07T20:29:39.054Z,100.00
2022-09-07T20:32:07.098Z,100.00
2022-09-07T20:34:35.207Z,100.00
2022-09-07T20:37:03.164Z,100.00
2022-09-07T20:39:33.631Z,100.00
2022-09-07T20:42:05.241Z,100.00
2022-09-07T20:44:33.215Z,100.00
2022-09-07T20:47:02.740Z,100.00
2022-09-07T20:49:31.324Z,100.00
2022-09-07T20:51:59.277Z,100.00
2022-09-07T20:54:27.190Z,100.00
2022-09-07T20:56:55.136Z,100.00
2022-09-07T20:59:23.183Z,100.00
2022-09-07T21:01:51.154Z,100.00
2022-09-07T21:04:20.599Z,100.00
2022-09-07T21:06:48.529Z,100.00
2022-09-07T21:09:16.477Z,100.00
2022-09-07T21:11:49.026Z,100.00
2022-09-07T21:14:19.210Z,100.00
2022-09-07T21:16:47.149Z,100.00
2022-09-07T21:19:15.749Z,100.00
2022-09-07T21:21:45.110Z,100.00
2022-09-07T21:24:17.657Z,100.00
2022-09-07T21:26:45.965Z,100.00
2022-09-07T21:29:18.436Z,100.00
2022-09-07T21:31:46.662Z,100.00
2022-09-07T21:34:15.390Z,100.00
2022-09-07T21:36:45.431Z,100.00
2022-09-07T21:39:14.832Z,100.00
2022-09-07T21:41:43.535Z,100.00
2022-09-07T21:44:13.898Z,100.00
2022-09-07T21:46:43.189Z,100.00
2022-09-07T21:49:11.571Z,100.00
2022-09-07T21:51:39.632Z,100.00
2022-09-07T21:54:09.149Z,100.00
2022-09-07T21:56:37.520Z,100.00
2022-09-07T21:59:06.555Z,100.00
2022-09-07T22:01:34.787Z,100.00
2022-09-07T22:04:05.006Z,100.00
2022-09-07T22:06:33.687Z,100.00
2022-09-07T22:09:02.379Z,100.00
2022-09-07T22:11:31.886Z,100.00
2022-09-07T22:14:02.586Z,100.00
2022-09-07T22:16:31.118Z,100.00
2022-09-07T22:18:59.145Z,100.00
2022-09-07T22:21:29.220Z,100.00
2022-09-07T22:23:58.726Z,100.00
2022-09-07T22:26:28.823Z,100.00
2022-09-07T22:28:59.499Z,100.00
2022-09-07T22:31:29.829Z,100.00
2022-09-07T22:33:59.721Z,100.00
2022-09-07T22:36:29.453Z,100.00
2022-09-07T22:38:59.512Z,100.00
2022-09-07T22:41:28.985Z,100.00
2022-09-07T22:43:58.598Z,100.00
2022-09-07T22:46:28.996Z,100.00
2022-09-07T22:48:58.161Z,100.00
2022-09-07T22:51:26.944Z,100.00
2022-09-07T22:53:56.428Z,100.00
2022-09-07T22:56:26.094Z,100.00
2022-09-07T22:58:56.702Z,100.00
2022-09-07T23:01:26.550Z,100.00
2022-09-07T23:03:55.378Z,100.00
2022-09-07T23:06:27.891Z,100.00
2022-09-07T23:08:57.744Z,100.00
2022-09-07T23:11:26.674Z,100.00
2022-09-07T23:13:55.995Z,100.00
2022-09-07T23:16:24.728Z,100.00
2022-09-07T23:18:54.236Z,100.00
2022-09-07T23:21:22.281Z,100.00
2022-09-07T23:23:52.089Z,100.00
2022-09-07T23:26:20.978Z,100.00
2022-09-07T23:28:52.637Z,100.00
2022-09-07T23:31:21.045Z,100.00
2022-09-07T23:33:49.393Z,100.00
2022-09-07T23:36:19.169Z,100.00
2022-09-07T23:38:47.560Z,100.00
2022-09-07T23:41:16.545Z,100.00
2022-09-07T23:43:44.628Z,100.00
2022-09-07T23:46:13.859Z,100.00
2022-09-07T23:48:43.373Z,100.00
2022-09-07T23:51:11.657Z,100.00
2022-09-07T23:53:41.378Z,100.00
2022-09-07T23:56:09.404Z,100.00
2022-09-07T23:58:37.356Z,100.00
